createdAt,value
2022-09-02T00:00:55.866Z,15.70
2022-09-02T00:01:56.206Z,15.69
2022-09-02T00:02:56.402Z,15.72
2022-09-02T00:03:56.546Z,15.72
2022-09-02T00:04:56.772Z,15.72
2022-09-02T00:05:56.964Z,15.73
2022-09-02T00:06:57.202Z,15.73
2022-09-02T00:07:57.403Z,15.75
2022-09-02T00:08:57.615Z,15.72
2022-09-02T00:09:57.820Z,15.70
2022-09-02T00:10:58.029Z,15.73
2022-09-02T00:11:58.258Z,15.73
2022-09-02T00:12:58.461Z,15.72
2022-09-02T00:13:58.674Z,15.72
2022-09-02T00:14:58.909Z,15.72
2022-09-02T00:15:59.118Z,15.72
2022-09-02T00:16:59.428Z,15.70
2022-09-02T00:17:59.544Z,15.73
2022-09-02T00:18:59.754Z,15.72
2022-09-02T00:19:59.959Z,15.75
2022-09-02T00:21:00.163Z,15.76
2022-09-02T00:22:00.373Z,15.76
2022-09-02T00:23:00.584Z,15.76
2022-09-02T00:24:00.779Z,15.76
2022-09-02T00:25:00.986Z,15.80
2022-09-02T00:26:01.178Z,15.76
2022-09-02T00:27:01.391Z,15.72
2022-09-02T00:28:01.593Z,15.69
2022-09-02T00:29:01.809Z,15.67
2022-09-02T00:30:01.991Z,15.67
2022-09-02T00:31:02.205Z,15.69
2022-09-02T00:32:02.500Z,15.70
2022-09-02T00:33:02.574Z,15.73
2022-09-02T00:34:02.777Z,15.76
2022-09-02T00:35:02.991Z,15.78
2022-09-02T00:36:03.192Z,15.83
2022-09-02T00:37:03.399Z,15.87
2022-09-02T00:38:03.615Z,15.88
2022-09-02T00:39:03.815Z,15.90
2022-09-02T00:40:04.066Z,15.90
2022-09-02T00:41:04.171Z,15.91
2022-09-02T00:42:04.403Z,15.88
2022-09-02T00:43:04.608Z,15.87
2022-09-02T00:44:04.817Z,15.90
2022-09-02T00:45:05.032Z,15.90
2022-09-02T00:46:05.295Z,15.90
2022-09-02T00:47:05.498Z,15.91
2022-09-02T00:48:05.688Z,15.88
2022-09-02T00:49:05.893Z,15.90
2022-09-02T00:50:06.063Z,15.88
2022-09-02T00:51:06.893Z,15.87
2022-09-02T00:52:06.511Z,15.87
2022-09-02T00:53:06.762Z,15.85
2022-09-02T00:54:06.953Z,15.87
2022-09-02T00:55:07.169Z,15.85
2022-09-02T00:56:07.367Z,15.84
2022-09-02T00:57:07.583Z,15.84
2022-09-02T00:58:09.404Z,15.84
2022-09-02T00:59:08.005Z,15.85
2022-09-02T01:00:08.212Z,15.83
2022-09-02T01:01:08.570Z,15.81
2022-09-02T01:02:08.799Z,15.78
2022-09-02T01:03:08.909Z,15.78
2022-09-02T01:04:09.111Z,15.80
2022-09-02T01:05:09.314Z,15.81
2022-09-02T01:06:09.585Z,15.83
2022-09-02T01:07:09.821Z,15.83
2022-09-02T01:08:10.031Z,15.85
2022-09-02T01:09:10.247Z,15.84
2022-09-02T01:10:10.607Z,15.84
2022-09-02T01:11:10.727Z,15.85
2022-09-02T01:12:10.955Z,15.84
2022-09-02T01:13:11.167Z,15.87
2022-09-02T01:14:11.357Z,15.88
2022-09-02T01:15:12.497Z,15.88
2022-09-02T01:16:11.859Z,15.85
2022-09-02T01:17:12.076Z,15.83
2022-09-02T01:18:12.287Z,15.83
2022-09-02T01:19:12.489Z,15.81
2022-09-02T01:20:12.685Z,15.81
2022-09-02T01:21:12.901Z,15.84
2022-09-02T01:22:13.103Z,15.88
2022-09-02T01:23:13.382Z,15.88
2022-09-02T01:24:13.506Z,15.87
2022-09-02T01:25:13.722Z,15.88
2022-09-02T01:26:13.915Z,15.90
2022-09-02T01:27:14.140Z,15.91
2022-09-02T01:28:14.363Z,15.92
2022-09-02T01:29:14.569Z,15.94
2022-09-02T01:30:14.761Z,15.96
2022-09-02T01:31:15.029Z,15.94
2022-09-02T01:32:15.124Z,15.94
2022-09-02T01:33:15.328Z,15.92
2022-09-02T01:34:15.498Z,15.91
2022-09-02T01:35:15.708Z,15.88
2022-09-02T01:36:15.904Z,15.85
2022-09-02T01:37:16.151Z,15.85
2022-09-02T01:38:16.361Z,15.84
2022-09-02T01:39:16.552Z,15.84
2022-09-02T01:40:16.911Z,15.83
2022-09-02T01:41:16.964Z,15.81
2022-09-02T01:42:17.182Z,15.80
2022-09-02T01:43:17.445Z,15.81
2022-09-02T01:44:17.549Z,15.78
2022-09-02T01:45:17.738Z,15.76
2022-09-02T01:46:17.975Z,15.76
2022-09-02T01:47:18.167Z,15.76
2022-09-02T01:48:21.812Z,15.70
2022-09-02T01:49:18.593Z,15.67
2022-09-02T01:50:18.801Z,15.66
2022-09-02T01:51:18.990Z,15.60
2022-09-02T01:52:19.203Z,15.54
2022-09-02T01:53:19.461Z,15.52
2022-09-02T01:54:19.634Z,15.47
2022-09-02T01:55:19.833Z,15.44
2022-09-02T01:56:20.032Z,15.47
2022-09-02T01:57:20.249Z,15.44
2022-09-02T01:58:20.449Z,15.41
2022-09-02T01:59:20.652Z,15.37
2022-09-02T02:00:20.852Z,15.35
2022-09-02T02:01:21.115Z,15.33
2022-09-02T02:02:21.384Z,15.32
2022-09-02T02:03:21.584Z,15.29
2022-09-02T02:04:21.714Z,15.27
2022-09-02T02:05:21.908Z,15.27
2022-09-02T02:06:22.120Z,15.29
2022-09-02T02:07:22.387Z,15.30
2022-09-02T02:08:22.500Z,15.29
2022-09-02T02:09:22.688Z,15.26
2022-09-02T02:10:22.900Z,15.25
2022-09-02T02:11:23.099Z,15.23
2022-09-02T02:12:23.318Z,15.19
2022-09-02T02:13:23.666Z,15.18
2022-09-02T02:14:23.737Z,15.12
2022-09-02T02:16:02.226Z,15.07
2022-09-02T02:17:02.348Z,15.02
2022-09-02T02:18:02.516Z,15.00
2022-09-02T02:19:02.674Z,15.00
2022-09-02T02:20:02.818Z,15.04
2022-09-02T02:21:02.976Z,15.07
2022-09-02T02:22:03.142Z,15.05
2022-09-02T02:23:03.309Z,15.02
2022-09-02T02:24:03.456Z,14.99
2022-09-02T02:25:03.606Z,14.96
2022-09-02T02:26:03.784Z,14.92
2022-09-02T02:27:03.939Z,14.90
2022-09-02T02:28:04.099Z,14.90
2022-09-02T02:29:04.285Z,14.90
2022-09-02T02:30:04.437Z,14.89
2022-09-02T02:31:04.642Z,14.87
2022-09-02T02:32:04.784Z,14.86
2022-09-02T02:33:04.955Z,14.82
2022-09-02T02:34:05.114Z,14.79
2022-09-02T02:35:05.259Z,14.79
2022-09-02T02:36:05.425Z,14.78
2022-09-02T02:37:05.581Z,14.74
2022-09-02T02:38:05.759Z,14.71
2022-09-02T02:39:05.926Z,14.70
2022-09-02T02:40:06.139Z,14.70
2022-09-02T02:41:06.317Z,14.68
2022-09-02T02:42:06.468Z,14.70
2022-09-02T02:43:06.658Z,14.71
2022-09-02T02:44:06.837Z,14.71
2022-09-02T02:45:06.983Z,14.68
2022-09-02T02:46:07.252Z,14.73
2022-09-02T02:47:07.296Z,14.68
2022-09-02T02:48:07.466Z,14.66
2022-09-02T02:49:07.633Z,14.62
2022-09-02T02:50:07.782Z,14.59
2022-09-02T02:51:07.950Z,14.55
2022-09-02T02:52:08.126Z,14.55
2022-09-02T02:53:08.302Z,14.55
2022-09-02T02:54:08.451Z,14.56
2022-09-02T02:55:08.608Z,14.55
2022-09-02T02:56:08.761Z,14.55
2022-09-02T02:57:08.912Z,14.55
2022-09-02T02:58:09.093Z,14.56
2022-09-02T02:59:09.251Z,14.58
2022-09-02T03:00:09.411Z,14.58
2022-09-02T03:01:09.585Z,14.59
2022-09-02T03:02:09.849Z,14.59
2022-09-02T03:03:09.966Z,14.58
2022-09-02T03:04:10.033Z,14.56
2022-09-02T03:05:10.180Z,14.55
2022-09-02T03:06:10.335Z,14.55
2022-09-02T03:07:10.491Z,14.53
2022-09-02T03:08:10.669Z,14.51
2022-09-02T03:09:10.825Z,14.49
2022-09-02T03:10:10.987Z,14.49
2022-09-02T03:11:11.161Z,14.45
2022-09-02T03:12:11.312Z,14.44
2022-09-02T03:13:11.476Z,14.44
2022-09-02T03:14:11.619Z,14.43
2022-09-02T03:15:11.788Z,14.38
2022-09-02T03:16:11.989Z,14.37
2022-09-02T03:17:18.606Z,14.38
2022-09-02T03:18:12.231Z,14.36
2022-09-02T03:19:12.376Z,14.36
2022-09-02T03:20:12.539Z,14.36
2022-09-02T03:21:12.698Z,14.34
2022-09-02T03:22:12.860Z,14.36
2022-09-02T03:23:13.039Z,14.36
2022-09-02T03:24:13.185Z,14.37
2022-09-02T03:25:13.344Z,14.34
2022-09-02T03:26:13.496Z,14.34
2022-09-02T03:27:13.655Z,14.36
2022-09-02T03:28:13.847Z,14.33
2022-09-02T03:29:13.997Z,14.33
2022-09-02T03:30:14.145Z,14.31
2022-09-02T03:31:14.360Z,14.30
2022-09-02T03:32:14.843Z,14.26
2022-09-02T03:33:14.578Z,14.26
2022-09-02T03:34:14.735Z,14.23
2022-09-02T03:35:14.885Z,14.20
2022-09-02T03:36:15.045Z,14.16
2022-09-02T03:37:15.197Z,14.16
2022-09-02T03:38:15.354Z,14.18
2022-09-02T03:39:15.504Z,14.19
2022-09-02T03:40:15.703Z,14.16
2022-09-02T03:41:15.865Z,14.15
2022-09-02T03:42:19.827Z,14.12
2022-09-02T03:43:16.154Z,14.13
2022-09-02T03:44:16.347Z,14.13
2022-09-02T03:45:16.526Z,14.13
2022-09-02T03:46:16.799Z,14.11
2022-09-02T03:47:16.895Z,14.08
2022-09-02T03:48:17.059Z,14.05
2022-09-02T03:49:17.138Z,14.05
2022-09-02T03:50:17.329Z,14.05
2022-09-02T03:51:17.525Z,14.07
2022-09-02T03:52:17.731Z,14.07
2022-09-02T03:53:19.605Z,14.05
2022-09-02T03:54:18.093Z,14.07
2022-09-02T03:55:18.301Z,14.05
2022-09-02T03:56:18.387Z,14.05
2022-09-02T03:57:18.576Z,14.03
2022-09-02T03:58:18.753Z,14.03
2022-09-02T03:59:18.912Z,14.03
2022-09-02T04:00:19.061Z,14.01
2022-09-02T04:01:19.274Z,14.04
2022-09-02T04:02:19.505Z,14.04
2022-09-02T04:03:19.663Z,14.03
2022-09-02T04:04:22.759Z,14.03
2022-09-02T04:05:19.860Z,14.01
2022-09-02T04:06:20.019Z,14.00
2022-09-02T04:07:20.173Z,14.00
2022-09-02T04:08:20.340Z,14.01
2022-09-02T04:09:20.499Z,14.04
2022-09-02T04:10:20.649Z,14.03
2022-09-02T04:11:20.810Z,14.01
2022-09-02T04:12:20.981Z,14.01
2022-09-02T04:13:21.291Z,14.01
2022-09-02T04:14:21.296Z,14.00
2022-09-02T04:15:21.453Z,14.01
2022-09-02T04:16:21.690Z,14.01
2022-09-02T04:17:21.907Z,14.01
2022-09-02T04:18:21.970Z,14.01
2022-09-02T04:19:22.122Z,14.01
2022-09-02T04:20:22.289Z,14.03
2022-09-02T04:21:22.469Z,14.00
2022-09-02T04:22:22.619Z,13.98
2022-09-02T04:23:22.965Z,13.97
2022-09-02T04:24:22.919Z,13.98
2022-09-02T04:25:27.660Z,13.98
2022-09-02T04:26:23.215Z,13.97
2022-09-02T04:27:23.377Z,13.95
2022-09-02T04:28:23.572Z,13.95
2022-09-02T04:29:23.730Z,14.00
2022-09-02T04:30:23.886Z,14.00
2022-09-02T04:31:24.110Z,14.03
2022-09-02T04:32:24.247Z,14.03
2022-09-02T04:33:24.422Z,14.04
2022-09-02T04:34:24.633Z,14.05
2022-09-02T04:35:24.778Z,14.04
2022-09-02T04:36:24.936Z,14.07
2022-09-02T04:37:25.170Z,14.08
2022-09-02T04:38:25.335Z,14.11
2022-09-02T04:39:25.484Z,14.11
2022-09-02T04:40:25.684Z,14.11
2022-09-02T04:41:25.814Z,14.13
2022-09-02T04:43:18.710Z,14.12
2022-09-02T04:44:18.803Z,14.13
2022-09-02T04:45:18.973Z,14.13
2022-09-02T04:46:19.150Z,14.13
2022-09-02T04:47:20.285Z,14.13
2022-09-02T04:48:19.441Z,14.15
2022-09-02T04:49:19.742Z,14.19
2022-09-02T04:50:19.841Z,14.20
2022-09-02T04:51:20.550Z,14.20
2022-09-02T04:52:20.378Z,14.25
2022-09-02T04:53:20.493Z,14.28
2022-09-02T04:54:20.533Z,14.33
2022-09-02T04:55:20.704Z,14.31
2022-09-02T04:56:20.932Z,14.34
2022-09-02T04:57:21.028Z,14.37
2022-09-02T04:58:21.220Z,14.41
2022-09-02T04:59:21.395Z,14.44
2022-09-02T05:00:21.552Z,14.45
2022-09-02T05:01:21.761Z,14.48
2022-09-02T05:02:22.004Z,14.55
2022-09-02T05:03:22.140Z,14.59
2022-09-02T05:04:22.219Z,14.62
2022-09-02T05:05:22.469Z,14.67
2022-09-02T05:06:22.519Z,14.73
2022-09-02T05:07:22.684Z,14.78
2022-09-02T05:08:22.880Z,14.78
2022-09-02T05:09:23.051Z,14.82
2022-09-02T05:10:23.249Z,14.85
2022-09-02T05:11:24.007Z,14.86
2022-09-02T05:12:23.631Z,14.86
2022-09-02T05:13:23.952Z,14.93
2022-09-02T05:14:23.989Z,14.94
2022-09-02T05:15:24.167Z,15.00
2022-09-02T05:16:24.378Z,14.93
2022-09-02T05:17:24.567Z,14.89
2022-09-02T05:18:24.719Z,14.90
2022-09-02T05:19:24.878Z,14.93
2022-09-02T05:20:25.087Z,14.97
2022-09-02T05:21:25.262Z,14.99
2022-09-02T05:22:25.435Z,14.99
2022-09-02T05:23:25.625Z,14.96
2022-09-02T05:24:26.832Z,14.96
2022-09-02T05:25:25.976Z,14.97
2022-09-02T05:26:26.177Z,15.02
2022-09-02T05:27:26.847Z,15.02
2022-09-02T05:28:26.517Z,14.97
2022-09-02T05:29:26.686Z,15.00
2022-09-02T05:30:26.845Z,15.04
2022-09-02T05:31:27.088Z,15.07
2022-09-02T05:32:27.128Z,15.10
2022-09-02T05:33:27.276Z,15.12
2022-09-02T05:34:27.433Z,15.18
2022-09-02T05:35:27.590Z,15.25
2022-09-02T05:36:27.894Z,15.32
2022-09-02T05:37:27.946Z,15.36
2022-09-02T05:38:28.105Z,15.44
2022-09-02T05:39:28.265Z,15.50
2022-09-02T05:40:28.968Z,15.57
2022-09-02T05:41:28.572Z,15.66
2022-09-02T05:42:28.741Z,15.69
2022-09-02T05:43:28.918Z,15.70
2022-09-02T05:44:29.054Z,15.70
2022-09-02T05:45:29.206Z,15.73
2022-09-02T05:46:29.467Z,15.75
2022-09-02T05:47:29.661Z,15.81
2022-09-02T05:48:29.743Z,15.88
2022-09-02T05:49:29.912Z,15.94
2022-09-02T05:50:30.080Z,15.92
2022-09-02T05:51:30.183Z,15.90
2022-09-02T05:52:30.343Z,15.91
2022-09-02T05:53:30.512Z,15.84
2022-09-02T05:54:30.691Z,15.83
2022-09-02T05:55:30.842Z,15.83
2022-09-02T05:56:31.050Z,15.78
2022-09-02T05:57:31.228Z,15.76
2022-09-02T05:58:31.387Z,15.75
2022-09-02T05:59:31.601Z,15.76
2022-09-02T06:00:31.764Z,15.73
2022-09-02T06:01:31.993Z,15.80
2022-09-02T06:02:32.213Z,15.87
2022-09-02T06:03:32.273Z,15.94
2022-09-02T06:04:32.546Z,15.92
2022-09-02T06:05:32.675Z,15.87
2022-09-02T06:06:32.746Z,15.91
2022-09-02T06:07:32.925Z,15.88
2022-09-02T06:08:33.127Z,15.85
2022-09-02T06:09:33.346Z,15.85
2022-09-02T06:10:33.424Z,15.81
2022-09-02T06:11:33.635Z,15.80
2022-09-02T06:12:33.677Z,15.76
2022-09-02T06:13:33.831Z,15.63
2022-09-02T06:14:34.062Z,15.60
2022-09-02T06:15:34.282Z,15.62
2022-09-02T06:16:34.493Z,15.69
2022-09-02T06:17:34.578Z,15.69
2022-09-02T06:18:34.989Z,15.80
2022-09-02T06:19:34.887Z,15.84
2022-09-02T06:20:35.065Z,15.84
2022-09-02T06:21:35.251Z,15.85
2022-09-02T06:22:35.415Z,15.91
2022-09-02T06:23:35.591Z,15.96
2022-09-02T06:24:35.762Z,16.00
2022-09-02T06:25:35.919Z,16.10
2022-09-02T06:26:36.090Z,16.13
2022-09-02T06:27:36.286Z,16.26
2022-09-02T06:28:36.471Z,16.29
2022-09-02T06:29:36.632Z,16.32
2022-09-02T06:30:36.868Z,16.29
2022-09-02T06:31:36.908Z,16.36
2022-09-02T06:32:37.069Z,16.54
2022-09-02T06:33:37.240Z,16.83
2022-09-02T06:34:37.595Z,17.22
2022-09-02T06:35:37.550Z,17.56
2022-09-02T06:36:37.759Z,17.63
2022-09-02T06:37:37.936Z,17.57
2022-09-02T06:38:40.562Z,17.39
2022-09-02T06:39:38.246Z,17.28
2022-09-02T06:40:38.495Z,17.22
2022-09-02T06:41:38.578Z,17.17
2022-09-02T06:42:38.707Z,17.20
2022-09-02T06:43:42.773Z,17.19
2022-09-02T06:44:38.974Z,17.19
2022-09-02T06:45:39.119Z,17.13
2022-09-02T06:46:39.348Z,17.07
2022-09-02T06:47:39.430Z,17.05
2022-09-02T06:48:39.569Z,17.12
2022-09-02T06:49:39.728Z,17.10
2022-09-02T06:50:39.878Z,17.09
2022-09-02T06:51:40.050Z,17.14
2022-09-02T06:52:40.205Z,17.16
2022-09-02T06:53:40.348Z,17.14
2022-09-02T06:54:40.495Z,17.14
2022-09-02T06:55:40.641Z,17.31
2022-09-02T06:56:40.798Z,17.38
2022-09-02T06:57:41.058Z,17.42
2022-09-02T06:58:41.121Z,17.28
2022-09-02T06:59:41.265Z,17.35
2022-09-02T07:00:41.413Z,17.39
2022-09-02T07:01:41.675Z,17.50
2022-09-02T07:02:41.687Z,17.57
2022-09-02T07:03:41.830Z,17.66
2022-09-02T07:04:41.975Z,17.90
2022-09-02T07:05:42.125Z,18.36
2022-09-02T07:06:42.315Z,19.22
2022-09-02T07:07:42.468Z,20.07
2022-09-02T07:08:42.601Z,20.53
2022-09-02T07:09:42.742Z,21.01
2022-09-02T07:10:42.884Z,21.41
2022-09-02T07:11:43.091Z,21.81
2022-09-02T07:12:44.418Z,22.49
2022-09-02T07:13:43.253Z,23.34
2022-09-02T07:14:43.400Z,23.84
2022-09-02T07:15:43.665Z,23.95
2022-09-02T07:16:43.760Z,23.79
2022-09-02T07:17:43.899Z,23.66
2022-09-02T07:18:44.040Z,23.37
2022-09-02T07:19:44.101Z,23.44
2022-09-02T07:20:44.227Z,23.77
2022-09-02T07:21:44.405Z,23.69
2022-09-02T07:22:44.470Z,23.36
2022-09-02T07:23:44.603Z,23.32
2022-09-02T07:24:44.726Z,23.37
2022-09-02T07:25:44.856Z,23.51
2022-09-02T07:26:45.019Z,23.86
2022-09-02T07:27:45.035Z,24.46
2022-09-02T07:28:45.216Z,24.61
2022-09-02T07:29:45.326Z,24.50
2022-09-02T07:30:45.427Z,24.21
2022-09-02T07:31:45.457Z,23.86
2022-09-02T07:32:45.554Z,24.09
2022-09-02T07:33:45.665Z,24.50
2022-09-02T07:34:45.722Z,24.09
2022-09-02T07:35:45.953Z,23.58
2022-09-02T07:36:46.226Z,22.80
2022-09-02T07:37:46.015Z,21.92
2022-09-02T07:38:46.250Z,22.52
2022-09-02T07:39:46.260Z,22.83
2022-09-02T07:40:46.389Z,23.07
2022-09-02T07:41:46.532Z,23.37
2022-09-02T07:42:46.621Z,23.49
2022-09-02T07:43:49.657Z,23.88
2022-09-02T07:44:47.637Z,24.46
2022-09-02T07:45:46.758Z,24.81
2022-09-02T07:46:47.007Z,25.33
2022-09-02T07:47:46.895Z,26.01
2022-09-02T07:48:46.997Z,25.95
2022-09-02T07:50:48.134Z,25.98
2022-09-02T07:51:47.245Z,25.63
2022-09-02T07:52:47.347Z,24.61
2022-09-02T07:53:47.437Z,23.85
2022-09-02T07:54:47.524Z,23.64
2022-09-02T07:55:47.843Z,23.20
2022-09-02T07:56:47.707Z,23.64
2022-09-02T07:57:47.818Z,24.03
2022-09-02T07:58:47.935Z,24.29
2022-09-02T07:59:48.084Z,24.82
2022-09-02T08:00:48.180Z,25.26
2022-09-02T08:01:48.209Z,25.62
2022-09-02T08:02:48.406Z,25.98
2022-09-02T08:03:48.356Z,26.45
2022-09-02T08:04:48.482Z,26.92
2022-09-02T08:05:48.583Z,27.07
2022-09-02T08:06:48.755Z,27.18
2022-09-02T08:07:48.768Z,27.20
2022-09-02T08:08:48.883Z,26.76
2022-09-02T08:09:48.974Z,26.71
2022-09-02T08:10:49.191Z,26.29
2022-09-02T08:11:50.269Z,26.26
2022-09-02T08:12:49.275Z,26.68
2022-09-02T08:13:49.925Z,26.66
2022-09-02T08:14:50.063Z,26.39
2022-09-02T08:15:50.869Z,26.44
2022-09-02T08:16:49.678Z,26.61
2022-09-02T08:17:51.154Z,26.64
2022-09-02T08:18:49.653Z,26.67
2022-09-02T08:19:49.735Z,26.39
2022-09-02T08:20:49.819Z,26.73
2022-09-02T08:21:49.917Z,26.76
2022-09-02T08:22:59.266Z,26.56
2022-09-02T08:23:51.044Z,26.29
2022-09-02T08:24:50.119Z,26.04
2022-09-02T08:25:50.197Z,26.41
2022-09-02T08:26:50.296Z,26.49
2022-09-02T08:27:50.421Z,26.15
2022-09-02T08:28:50.454Z,26.04
2022-09-02T08:29:50.556Z,26.24
2022-09-02T08:30:50.647Z,26.01
2022-09-02T08:31:53.515Z,25.99
2022-09-02T08:32:50.727Z,26.24
2022-09-02T08:33:50.988Z,26.16
2022-09-02T08:34:50.812Z,25.98
2022-09-02T08:35:50.878Z,26.01
2022-09-02T08:36:57.042Z,25.93
2022-09-02T08:37:51.974Z,26.10
2022-09-02T08:38:51.067Z,26.15
2022-09-02T08:39:51.148Z,26.37
2022-09-02T08:40:51.317Z,26.45
2022-09-02T08:41:51.283Z,26.53
2022-09-02T08:42:51.920Z,26.61
2022-09-02T08:43:51.269Z,26.74
2022-09-02T08:44:51.338Z,26.66
2022-09-02T08:45:51.435Z,26.42
2022-09-02T08:46:51.449Z,26.36
2022-09-02T08:47:51.398Z,26.36
2022-09-02T08:48:51.465Z,26.23
2022-09-02T08:49:51.521Z,26.27
2022-09-02T08:50:51.614Z,26.07
2022-09-02T08:51:53.351Z,26.06
2022-09-02T08:52:51.739Z,26.55
2022-09-02T08:53:51.819Z,26.98
2022-09-02T08:54:51.880Z,27.33
2022-09-02T08:55:51.930Z,27.28
2022-09-02T08:56:51.997Z,27.20
2022-09-02T08:57:52.054Z,27.18
2022-09-02T08:58:52.019Z,27.00
2022-09-02T08:59:53.196Z,26.96
2022-09-02T09:00:52.157Z,26.92
2022-09-02T09:01:52.142Z,27.13
2022-09-02T09:02:52.214Z,27.23
2022-09-02T09:03:52.124Z,27.08
2022-09-02T09:04:52.155Z,26.76
2022-09-02T09:05:52.202Z,26.42
2022-09-02T09:06:52.300Z,26.37
2022-09-02T09:07:52.244Z,26.53
2022-09-02T09:08:52.282Z,26.91
2022-09-02T09:09:52.314Z,27.25
2022-09-02T09:10:52.355Z,27.53
2022-09-02T09:11:52.439Z,27.53
2022-09-02T09:12:52.355Z,26.78
2022-09-02T09:13:52.392Z,26.61
2022-09-02T09:14:52.452Z,26.68
2022-09-02T09:15:52.562Z,25.99
2022-09-02T09:16:52.529Z,26.19
2022-09-02T09:17:52.483Z,26.39
2022-09-02T09:18:52.524Z,27.10
2022-09-02T09:19:52.572Z,27.71
2022-09-02T09:20:52.614Z,27.58
2022-09-02T09:21:52.653Z,27.55
2022-09-02T09:22:52.688Z,28.00
2022-09-02T09:23:52.733Z,28.15
2022-09-02T09:24:52.771Z,27.91
2022-09-02T09:25:52.812Z,27.98
2022-09-02T09:26:52.867Z,28.30
2022-09-02T09:27:52.882Z,28.41
2022-09-02T09:28:52.926Z,28.53
2022-09-02T09:29:52.964Z,28.28
2022-09-02T09:30:52.986Z,28.22
2022-09-02T09:31:53.115Z,28.41
2022-09-02T09:32:53.012Z,28.52
2022-09-02T09:33:53.054Z,28.25
2022-09-02T09:34:53.088Z,27.79
2022-09-02T09:35:53.139Z,27.66
2022-09-02T09:36:53.051Z,27.55
2022-09-02T09:37:53.087Z,27.58
2022-09-02T09:38:53.166Z,28.31
2022-09-02T09:39:53.054Z,28.89
2022-09-02T09:40:53.099Z,29.27
2022-09-02T09:41:53.151Z,29.15
2022-09-02T09:42:53.115Z,28.93
2022-09-02T09:43:53.043Z,28.84
2022-09-02T09:44:53.061Z,29.10
2022-09-02T09:45:53.159Z,29.62
2022-09-02T09:46:53.106Z,29.61
2022-09-02T09:47:53.136Z,29.07
2022-09-02T09:48:54.105Z,28.94
2022-09-02T09:49:53.129Z,27.94
2022-09-02T09:50:53.130Z,27.75
2022-09-02T09:51:53.137Z,27.75
2022-09-02T09:52:53.175Z,27.61
2022-09-02T09:53:53.072Z,27.85
2022-09-02T09:54:53.090Z,28.04
2022-09-02T09:55:53.116Z,27.94
2022-09-02T09:56:53.152Z,27.91
2022-09-02T09:57:53.129Z,27.86
2022-09-02T09:58:53.148Z,27.60
2022-09-02T09:59:53.156Z,27.78
2022-09-02T10:00:53.214Z,27.82
2022-09-02T10:01:53.137Z,27.64
2022-09-02T10:02:53.064Z,27.73
2022-09-02T10:03:52.984Z,27.50
2022-09-02T10:04:52.995Z,27.71
2022-09-02T10:05:53.018Z,27.83
2022-09-02T10:06:53.038Z,28.64
2022-09-02T10:07:53.045Z,29.47
2022-09-02T10:08:53.069Z,29.10
2022-09-02T10:09:52.956Z,28.87
2022-09-02T10:10:52.974Z,28.70
2022-09-02T10:11:53.007Z,28.67
2022-09-02T10:12:53.044Z,28.46
2022-09-02T10:13:52.943Z,27.86
2022-09-02T10:14:52.946Z,28.04
2022-09-02T10:15:52.967Z,27.91
2022-09-02T10:16:53.035Z,28.49
2022-09-02T10:17:52.913Z,28.64
2022-09-02T10:18:52.929Z,28.59
2022-09-02T10:19:52.966Z,28.35
2022-09-02T10:21:53.829Z,26.66
2022-09-02T10:23:00.010Z,26.27
2022-09-02T10:23:53.838Z,25.62
2022-09-02T10:24:52.774Z,24.55
2022-09-02T10:25:52.811Z,24.59
2022-09-02T10:26:52.850Z,25.46
2022-09-02T10:27:52.892Z,25.92
2022-09-02T10:28:52.955Z,25.85
2022-09-02T10:29:52.990Z,25.88
2022-09-02T10:30:53.056Z,25.48
2022-09-02T10:31:53.058Z,25.92
2022-09-02T10:32:52.999Z,26.44
2022-09-02T10:33:53.059Z,26.79
2022-09-02T10:34:53.106Z,26.96
2022-09-02T10:35:53.149Z,27.35
2022-09-02T10:36:53.181Z,27.29
2022-09-02T10:37:53.147Z,26.52
2022-09-02T10:38:53.201Z,26.27
2022-09-02T10:39:53.249Z,26.07
2022-09-02T10:40:53.385Z,25.76
2022-09-02T10:41:53.271Z,25.44
2022-09-02T10:42:53.333Z,25.18
2022-09-02T10:43:57.188Z,24.69
2022-09-02T10:44:55.730Z,24.11
2022-09-02T10:45:54.512Z,24.18
2022-09-02T10:46:53.590Z,25.29
2022-09-02T10:47:53.663Z,25.73
2022-09-02T10:48:53.733Z,26.03
2022-09-02T10:49:53.796Z,25.34
2022-09-02T10:50:53.871Z,24.85
2022-09-02T10:51:54.098Z,24.79
2022-09-02T10:52:53.971Z,24.71
2022-09-02T10:53:54.038Z,24.40
2022-09-02T10:54:54.974Z,24.79
2022-09-02T10:55:54.171Z,25.81
2022-09-02T10:56:54.237Z,26.60
2022-09-02T10:57:54.317Z,27.07
2022-09-02T10:58:54.442Z,27.82
2022-09-02T10:59:54.381Z,27.68
2022-09-02T11:00:54.529Z,27.75
2022-09-02T11:01:54.476Z,28.64
2022-09-02T11:02:54.525Z,28.92
2022-09-02T11:03:54.589Z,29.00
2022-09-02T11:04:55.000Z,28.84
2022-09-02T11:05:54.487Z,28.84
2022-09-02T11:07:03.269Z,29.16
2022-09-02T11:07:55.527Z,29.55
2022-09-02T11:08:54.433Z,29.83
2022-09-02T11:09:54.446Z,29.39
2022-09-02T11:10:54.475Z,28.94
2022-09-02T11:11:57.050Z,28.43
2022-09-02T11:12:54.535Z,28.59
2022-09-02T11:13:54.545Z,29.20
2022-09-02T11:14:54.502Z,29.62
2022-09-02T11:15:54.620Z,29.96
2022-09-02T11:16:54.540Z,29.59
2022-09-02T11:17:54.536Z,29.09
2022-09-02T11:18:54.523Z,29.42
2022-09-02T11:19:54.550Z,29.32
2022-09-02T11:20:54.691Z,29.40
2022-09-02T11:21:54.501Z,29.79
2022-09-02T11:22:54.607Z,29.53
2022-09-02T11:23:54.498Z,28.68
2022-09-02T11:24:54.510Z,28.15
2022-09-02T11:25:54.506Z,27.88
2022-09-02T11:26:54.520Z,26.81
2022-09-02T11:27:54.562Z,25.81
2022-09-02T11:28:54.553Z,24.96
2022-09-02T11:29:54.584Z,24.32
2022-09-02T11:30:54.641Z,24.01
2022-09-02T11:31:54.661Z,23.74
2022-09-02T11:32:54.711Z,23.73
2022-09-02T11:33:54.773Z,23.71
2022-09-02T11:34:54.817Z,23.79
2022-09-02T11:35:54.882Z,24.03
2022-09-02T11:36:54.963Z,24.34
2022-09-02T11:37:55.031Z,24.41
2022-09-02T11:38:55.104Z,24.53
2022-09-02T11:40:11.173Z,24.48
2022-09-02T11:41:56.218Z,23.94
2022-09-02T11:42:55.282Z,23.69
2022-09-02T11:44:55.387Z,23.52
2022-09-02T11:45:55.520Z,23.49
2022-09-02T11:46:55.541Z,23.54
2022-09-02T11:47:55.597Z,23.58
2022-09-02T11:48:55.698Z,23.47
2022-09-02T11:49:55.803Z,23.14
2022-09-02T11:50:55.930Z,23.17
2022-09-02T11:51:56.034Z,23.20
2022-09-02T11:52:56.136Z,23.29
2022-09-02T11:53:56.352Z,23.51
2022-09-02T11:54:59.458Z,23.95
2022-09-02T11:55:57.327Z,24.97
2022-09-02T11:56:56.413Z,25.76
2022-09-02T11:57:56.498Z,26.41
2022-09-02T11:58:56.511Z,27.29
2022-09-02T11:59:56.582Z,28.55
2022-09-02T12:00:56.648Z,28.89
2022-09-02T12:01:56.715Z,29.05
2022-09-02T12:02:56.738Z,29.16
2022-09-02T12:05:00.250Z,29.05
2022-09-02T12:05:56.883Z,29.09
2022-09-02T12:06:56.874Z,29.55
2022-09-02T12:07:56.810Z,30.03
2022-09-02T12:08:56.829Z,29.44
2022-09-02T12:09:56.950Z,29.18
2022-09-02T12:10:56.849Z,29.03
2022-09-02T12:11:56.883Z,28.19
2022-09-02T12:12:56.909Z,27.79
2022-09-02T12:13:56.922Z,27.26
2022-09-02T12:14:56.940Z,27.66
2022-09-02T12:15:57.008Z,28.33
2022-09-02T12:16:56.928Z,28.94
2022-09-02T12:17:56.899Z,29.12
2022-09-02T12:18:56.918Z,29.21
2022-09-02T12:19:56.949Z,28.89
2022-09-02T12:20:56.905Z,28.87
2022-09-02T12:21:56.930Z,29.37
2022-09-02T12:22:56.948Z,29.32
2022-09-02T12:23:56.955Z,29.24
2022-09-02T12:24:56.973Z,29.28
2022-09-02T12:25:56.989Z,28.50
2022-09-02T12:26:57.019Z,27.79
2022-09-02T12:27:57.001Z,27.88
2022-09-02T12:28:57.035Z,27.16
2022-09-02T12:29:57.044Z,26.81
2022-09-02T12:30:57.182Z,26.61
2022-09-02T12:31:57.093Z,26.22
2022-09-02T12:32:57.125Z,26.15
2022-09-02T12:33:57.163Z,26.79
2022-09-02T12:34:57.223Z,26.34
2022-09-02T12:35:57.155Z,27.01
2022-09-02T12:36:57.205Z,27.23
2022-09-02T12:37:57.245Z,27.22
2022-09-02T12:38:57.273Z,27.37
2022-09-02T12:39:57.306Z,27.63
2022-09-02T12:40:57.436Z,27.71
2022-09-02T12:41:57.383Z,27.85
2022-09-02T12:42:57.409Z,28.50
2022-09-02T12:43:57.444Z,28.72
2022-09-02T12:44:57.472Z,28.52
2022-09-02T12:45:57.497Z,28.94
2022-09-02T12:46:57.544Z,28.80
2022-09-02T12:47:57.537Z,28.86
2022-09-02T12:48:57.556Z,29.18
2022-09-02T12:49:57.580Z,28.12
2022-09-02T12:50:57.569Z,27.37
2022-09-02T12:51:57.606Z,28.03
2022-09-02T12:52:57.632Z,28.78
2022-09-02T12:53:57.644Z,28.82
2022-09-02T12:54:57.726Z,28.77
2022-09-02T12:55:57.634Z,28.67
2022-09-02T12:56:57.675Z,28.50
2022-09-02T12:57:57.678Z,28.62
2022-09-02T12:59:02.340Z,28.64
2022-09-02T12:59:58.650Z,28.16
2022-09-02T13:00:57.662Z,28.19